METAR Data
IDs: Format: Raw Decoded Include TAF

Data at: 2151 UTC 18 Apr 2021

WMKA 182100Z VRB03KT 9000 FEW010 26/25 Q1009